• Join FlightAware (Why Join?)
  • Login
  • US Flag 
05:30AM EDT


 

Airport Tracker/Info


-or-


 

Live Flight TrackerFlight Track Log ✈ VH-IGQ ✈ 27-Sep-2013 ✈ YSBK / BWU - YSBK / BWU

Flight Track Log - Related Links

Times and Time Zones

All times are in EDT time to prevent confusion due to time zone crossing. See the VH-IGQ flight status page for this flight to view local times or setup timezone preferences in your user account.

Time Position Orientation Groundspeed Altitude Reporting Facility
EDT Latitude Longitude Course Direction KTS MPH feet Rate Location/Type
07:03PM -34.0036 150.9639 360° North 5,000  Level Aus ATC (Calculated)
07:03PM -33.9085 150.9630 303° West 103 119 700 -3,840 Descending Aus ATC (RADAR)
07:04PM -33.8988 150.9450 303° West 104 120 1,200 780 Climbing Aus ATC (RADAR)
07:05PM -33.8857 150.9224 305° West 106 122 1,800 840 Climbing Aus ATC (RADAR)
07:05PM -33.8726 150.9011 307° West 115 132 2,400 840 Climbing Aus ATC (RADAR)
07:06PM -33.8571 150.8756 306° West 119 137 3,000 600 Climbing Aus ATC (RADAR)
07:06PM -33.8490 150.8605 303° West 125 144 3,100 120 Climbing Aus ATC (RADAR)
07:08PM -33.8765 150.8288 224° Southwest 129 148 3,300 180 Climbing Aus ATC (RADAR)
07:08PM -33.8897 150.8311 172° South 119 137 3,500 480 Climbing Aus ATC (RADAR)
07:09PM -33.9079 150.8307 181° South 111 128 3,800 300 Climbing Aus ATC (RADAR)
07:10PM -33.9346 150.8283 184° South 117 135 4,000 180 Climbing Aus ATC (RADAR)
07:10PM -33.9542 150.8268 184° South 122 140 4,100 60 Climbing Aus ATC (RADAR)
07:11PM -33.9837 150.8252 183° South 128 147 4,100  Level Aus ATC (RADAR)
07:12PM -33.9988 150.8239 184° South 130 150 4,100  Level Aus ATC (RADAR)
07:13PM -34.0436 150.8200 184° South 128 147 4,100  Level Aus ATC (RADAR)
07:13PM -34.0614 150.8160 191° South 131 151 4,100  Level Aus ATC (RADAR)
07:14PM -34.0823 150.8116 190° South 131 151 4,100 -120 Level Aus ATC (RADAR)
07:15PM -34.1036 150.8076 189° South 133 153 4,000  Descending Aus ATC (RADAR)
07:15PM -34.1276 150.8033 188° South 131 151 4,100  Climbing Aus ATC (RADAR)
07:16PM -34.1544 150.7985 188° South 130 150 4,000 -120 Descending Aus ATC (RADAR)
07:16PM -34.1693 150.7957 189° South 130 150 4,000  Level Aus ATC (RADAR)
07:18PM -34.2161 150.7861 190° South 128 147 4,000  Level Aus ATC (RADAR)
07:18PM -34.2363 150.7818 190° South 128 147 4,100 120 Climbing Aus ATC (RADAR)
07:19PM -34.2449 150.7794 193° South 127 146 4,100 -120 Level Aus ATC (RADAR)
07:19PM -34.2657 150.7739 192° South 133 153 4,000 -240 Descending Aus ATC (RADAR)
07:20PM -34.2925 150.7668 192° South 132 152 3,800 -180 Descending Aus ATC (RADAR)
07:21PM -34.3130 150.7615 192° South 129 148 3,800  Level Aus ATC (RADAR)
07:21PM -34.3165 150.7354 261° West 128 147 3,800  Level Aus ATC (RADAR)
07:22PM -34.3002 150.7308 347° North 135 155 3,800  Level Aus ATC (RADAR)
07:23PM -34.2436 150.7305 360° North 141 162 3,800  Level Aus ATC (RADAR)
07:24PM -34.2403 150.7490 78° East 137 158 3,900  Climbing Aus ATC (RADAR)
07:24PM -34.2588 150.7584 157° South 124 143 3,800 -120 Descending Aus ATC (RADAR)
07:25PM -34.2838 150.7631 171° South 122 140 3,800  Level Aus ATC (RADAR)
07:25PM -34.3040 150.7630 180° South 124 143 3,800  Level Aus ATC (RADAR)
07:26PM -34.3293 150.7638 179° South 123 142 3,800  Level Aus ATC (RADAR)
07:27PM -34.3458 150.7650 176° South 120 138 3,800  Level Aus ATC (RADAR)
07:28PM -34.3806 150.7701 173° South 115 132 3,800 -240 Level Aus ATC (RADAR)
07:28PM -34.3962 150.7723 173° South 115 132 3,500 -600 Descending Aus ATC (RADAR)
07:29PM -34.4105 150.7741 174° South 124 143 3,300 -540 Descending Aus ATC (RADAR)
07:29PM -34.4318 150.7753 177° South 131 151 3,000 -540 Descending Aus ATC (RADAR)
07:30PM -34.4593 150.7721 186° South 134 154 2,600 -600 Descending Aus ATC (RADAR)
07:31PM -34.4807 150.7753 173° South 132 152 2,200 -720 Descending Aus ATC (RADAR)
07:31PM -34.4955 150.7765 176° South 129 148 1,900  Descending Aus ATC (RADAR)
07:35PM -34.5250 150.8550 114° Southeast 108 124 2,200 120 Climbing Aus ATC (RADAR)
07:35PM -34.5177 150.8786 70° East 112 129 2,500 540 Climbing Aus ATC (RADAR)
07:36PM -34.5077 150.9045 65° Northeast 113 130 3,000 720 Climbing Aus ATC (RADAR)
07:36PM -34.5022 150.9189 65° Northeast 113 130 3,400 660 Climbing Aus ATC (RADAR)
07:37PM -34.4854 150.9164 353° North 122 140 3,700 360 Climbing Aus ATC (RADAR)
07:39PM -34.5215 150.8537 235° Southwest 131 151 4,300 240 Climbing Aus ATC (RADAR)
07:39PM -34.5258 150.8441 242° Southwest 130 150 4,300 120 Level Aus ATC (RADAR)
07:40PM -34.5336 150.8226 246° West 116 133 4,400  Climbing Aus ATC (RADAR)
07:40PM -34.5445 150.7994 240° Southwest 119 137 4,300  Descending Aus ATC (RADAR)
07:41PM -34.5568 150.7801 232° Southwest 122 140 4,400  Climbing Aus ATC (RADAR)
07:42PM -34.5590 150.7507 265° West 120 138 4,300  Descending Aus ATC (RADAR)
07:42PM -34.5589 150.7339 270° West 116 133 4,400  Climbing Aus ATC (RADAR)
07:44PM -34.5323 150.7762 53° Northeast 139 160 4,300 -120 Descending Aus ATC (RADAR)
07:44PM -34.5334 150.7948 94° East 133 153 4,200 -240 Descending Aus ATC (RADAR)
07:45PM -34.5130 150.8116 34° Northeast 146 168 4,100 -300 Descending Aus ATC (RADAR)
07:45PM -34.5060 150.8130 10° North 148 170 4,000 -600 Descending Aus ATC (RADAR)
07:48PM -34.4480 150.7973 347° North 5,000 240 Climbing Aus ATC (Calculated)
08:09PM -34.0422 150.6878 65° Northeast -300 Descending Aus ATC (Calculated)
08:14PM -33.9244 150.9884 65° Northeast  Level Aus ATC (Calculated)